createdAt,value
2022-10-05T00:01:30.188Z,100362.91
2022-10-05T00:04:07.584Z,100368.19
2022-10-05T00:06:36.671Z,100362.94
2022-10-05T00:09:16.313Z,100368.13
2022-10-05T00:11:45.836Z,100366.47
2022-10-05T00:14:18.979Z,100367.31
2022-10-05T00:16:49.241Z,100362.06
2022-10-05T00:19:26.877Z,100362.00
2022-10-05T00:21:58.236Z,100370.00
2022-10-05T00:24:26.791Z,100366.47
2022-10-05T00:26:57.965Z,100377.91
2022-10-05T00:29:26.908Z,100376.13
2022-10-05T00:31:55.265Z,100370.88
2022-10-05T00:34:27.424Z,100373.50
2022-10-05T00:36:56.038Z,100372.59
2022-10-05T00:39:24.596Z,100372.63
2022-10-05T00:42:11.925Z,100382.31
2022-10-05T00:44:46.956Z,100372.81
2022-10-05T00:47:32.006Z,100377.28
2022-10-05T00:50:17.957Z,100380.00
2022-10-05T00:52:55.902Z,100383.53
2022-10-05T00:55:36.886Z,100385.28
2022-10-05T00:58:15.979Z,100379.16
2022-10-05T01:00:55.802Z,100387.03
2022-10-05T01:03:32.096Z,100396.72
2022-10-05T01:06:14.293Z,100392.25
2022-10-05T01:08:56.830Z,100393.94
2022-10-05T01:11:31.192Z,100391.31
2022-10-05T01:14:14.071Z,100396.47
2022-10-05T01:16:52.214Z,100397.31
2022-10-05T01:19:44.449Z,100400.75
2022-10-05T01:22:25.531Z,100403.41
2022-10-05T01:25:07.348Z,100403.38
2022-10-05T01:27:43.355Z,100407.78
2022-10-05T01:30:14.714Z,100411.31
2022-10-05T01:32:49.537Z,100415.72
2022-10-05T01:35:32.444Z,100414.81
2022-10-05T01:38:17.284Z,100423.56
2022-10-05T01:40:54.252Z,100414.81
2022-10-05T01:43:31.914Z,100418.31
2022-10-05T01:46:15.142Z,100424.44
2022-10-05T01:48:54.162Z,100425.34
2022-10-05T01:51:37.436Z,100427.97
2022-10-05T01:54:19.809Z,100427.97
2022-10-05T01:57:00.730Z,100433.22
2022-10-05T01:59:47.229Z,100433.22
2022-10-05T02:02:18.811Z,100441.16
2022-10-05T02:05:07.482Z,100434.19
2022-10-05T02:07:41.320Z,100438.56
2022-10-05T02:10:19.253Z,100452.59
2022-10-05T02:12:51.684Z,100445.59
2022-10-05T02:15:27.672Z,100448.19
2022-10-05T02:18:03.458Z,100447.34
2022-10-05T02:20:35.683Z,100440.34
2022-10-05T02:23:09.136Z,100438.59
2022-10-05T02:25:41.781Z,100454.34
2022-10-05T02:28:16.724Z,100451.72
2022-10-05T02:30:53.632Z,100456.13
2022-10-05T02:33:29.162Z,100462.28
2022-10-05T02:36:03.196Z,100458.78
2022-10-05T02:38:42.955Z,100461.38
2022-10-05T02:41:25.299Z,100456.13
2022-10-05T02:44:04.090Z,100452.63
2022-10-05T02:46:41.677Z,100456.16
2022-10-05T02:49:23.249Z,100454.44
2022-10-05T02:52:04.937Z,100455.31
2022-10-05T02:54:44.841Z,100458.81
2022-10-05T02:57:24.284Z,100459.69
2022-10-05T03:00:04.111Z,100457.97
2022-10-05T03:02:42.049Z,100464.09
2022-10-05T03:05:21.632Z,100460.59
2022-10-05T03:07:58.512Z,100455.44
2022-10-05T03:10:33.609Z,100454.59
2022-10-05T03:13:09.987Z,100448.47
2022-10-05T03:15:51.487Z,100446.72
2022-10-05T03:18:35.564Z,100446.75
2022-10-05T03:21:16.457Z,100428.34
2022-10-05T03:24:13.862Z,100425.69
2022-10-05T03:26:53.909Z,100421.34
2022-10-05T03:29:34.714Z,100427.41
2022-10-05T03:32:17.708Z,100424.81
2022-10-05T03:34:54.084Z,100429.22
2022-10-05T03:37:29.188Z,100434.47
2022-10-05T03:40:07.369Z,100439.69
2022-10-05T03:42:47.472Z,100445.84
2022-10-05T03:45:28.208Z,100444.94
2022-10-05T03:48:06.563Z,100446.69
2022-10-05T03:50:47.098Z,100449.34
2022-10-05T03:53:20.774Z,100452.00
2022-10-05T03:55:55.378Z,100457.25
2022-10-05T03:58:30.067Z,100459.03
2022-10-05T04:01:04.961Z,100457.25
2022-10-05T04:03:37.488Z,100456.41
2022-10-05T04:06:14.013Z,100466.88
2022-10-05T04:08:48.457Z,100466.00
2022-10-05T04:11:26.705Z,100477.38
2022-10-05T04:14:01.999Z,100473.88
2022-10-05T04:16:35.940Z,100482.66
2022-10-05T04:19:11.788Z,100480.91
2022-10-05T04:21:50.361Z,100483.50
2022-10-05T04:24:29.970Z,100489.63
2022-10-05T04:27:01.705Z,100486.13
2022-10-05T04:29:39.268Z,100484.38
2022-10-05T04:32:23.324Z,100485.22
2022-10-05T04:35:04.225Z,100484.38
2022-10-05T04:37:46.743Z,100487.00
2022-10-05T04:40:33.662Z,100487.88
2022-10-05T04:43:09.659Z,100493.13
2022-10-05T04:46:06.669Z,100489.66
2022-10-05T04:49:01.134Z,100500.16
2022-10-05T04:51:38.341Z,100506.25
2022-10-05T04:54:22.015Z,100507.13
2022-10-05T04:56:56.195Z,100501.94
2022-10-05T04:59:42.592Z,100503.66
2022-10-05T05:02:21.128Z,100509.78
2022-10-05T05:05:05.708Z,100510.66
2022-10-05T05:07:43.030Z,100511.47
2022-10-05T05:10:47.208Z,100515.88
2022-10-05T05:13:47.133Z,100519.38
2022-10-05T05:16:26.816Z,100520.22
2022-10-05T05:19:23.647Z,100519.28
2022-10-05T05:22:02.483Z,100526.34
2022-10-05T05:24:44.855Z,100527.19
2022-10-05T05:27:38.214Z,100528.00
2022-10-05T05:30:19.969Z,100525.38
2022-10-05T05:33:02.331Z,100535.03
2022-10-05T05:35:47.114Z,100533.28
2022-10-05T05:38:27.296Z,100544.66
2022-10-05T05:41:08.291Z,100547.28
2022-10-05T05:44:01.519Z,100538.41
2022-10-05T05:47:02.484Z,100541.88
2022-10-05T05:49:37.786Z,100548.00
2022-10-05T05:52:15.645Z,100542.78
2022-10-05T05:54:49.805Z,100544.59
2022-10-05T05:57:25.450Z,100551.59
2022-10-05T06:00:03.965Z,100549.84
2022-10-05T06:02:49.080Z,100553.31
2022-10-05T06:05:29.808Z,100555.03
2022-10-05T06:08:04.394Z,100557.56
2022-10-05T06:10:42.074Z,100563.69
2022-10-05T06:13:20.268Z,100565.44
2022-10-05T06:15:55.888Z,100563.75
2022-10-05T06:18:26.868Z,100570.75
2022-10-05T06:21:02.851Z,100581.31
2022-10-05T06:23:44.542Z,100580.41
2022-10-05T06:26:23.698Z,100578.63
2022-10-05T06:28:59.141Z,100588.22
2022-10-05T06:31:44.520Z,100583.72
2022-10-05T06:34:35.205Z,100573.94
2022-10-05T06:37:11.906Z,100574.78
2022-10-05T06:40:01.284Z,100582.53
2022-10-05T06:42:54.344Z,100584.97
2022-10-05T06:46:03.717Z,100584.91
2022-10-05T06:49:04.367Z,100597.03
2022-10-05T06:51:58.219Z,100587.28
2022-10-05T06:54:46.848Z,100588.16
2022-10-05T06:57:36.371Z,100588.00
2022-10-05T07:00:15.888Z,100589.63
2022-10-05T07:02:54.455Z,100591.47
2022-10-05T07:05:55.889Z,100592.78
2022-10-05T07:08:35.765Z,100595.41
2022-10-05T07:11:17.352Z,100600.88
2022-10-05T07:14:05.793Z,100593.94
2022-10-05T07:16:46.462Z,100595.88
2022-10-05T07:19:36.039Z,100604.53
2022-10-05T07:22:31.823Z,100597.38
2022-10-05T07:25:12.207Z,100599.00
2022-10-05T07:27:51.787Z,100604.00
2022-10-05T07:30:21.483Z,100609.16
2022-10-05T07:33:00.000Z,100605.22
2022-10-05T07:35:58.363Z,100608.38
2022-10-05T07:38:33.761Z,100618.88
2022-10-05T07:41:09.636Z,100624.78
2022-10-05T07:44:01.446Z,100623.66
2022-10-05T07:46:43.207Z,100627.00
2022-10-05T07:49:22.698Z,100625.03
2022-10-05T07:51:57.805Z,100636.63
2022-10-05T07:54:36.791Z,100627.47
2022-10-05T07:57:18.847Z,100640.09
2022-10-05T07:59:57.879Z,100630.22
2022-10-05T08:02:30.240Z,100625.16
2022-10-05T08:05:04.516Z,100633.56
2022-10-05T08:07:35.998Z,100636.63
2022-10-05T08:10:19.404Z,100637.06
2022-10-05T08:13:01.458Z,100636.00
2022-10-05T08:15:35.364Z,100642.50
2022-10-05T08:18:11.973Z,100646.84
2022-10-05T08:20:46.648Z,100643.66
2022-10-05T08:23:28.989Z,100641.09
2022-10-05T08:26:16.251Z,100640.59
2022-10-05T08:28:53.029Z,100641.22
2022-10-05T08:31:26.877Z,100642.16
2022-10-05T08:34:03.855Z,100647.78
2022-10-05T08:36:53.739Z,100649.34
2022-10-05T08:39:25.815Z,100656.59
2022-10-05T08:42:43.042Z,100655.66
2022-10-05T08:45:40.777Z,100665.84
2022-10-05T08:48:44.821Z,100677.59
2022-10-05T08:51:42.495Z,100670.09
2022-10-05T08:54:42.927Z,100674.38
2022-10-05T08:57:33.841Z,100669.31
2022-10-05T09:00:10.979Z,100670.38
2022-10-05T09:03:08.077Z,100677.16
2022-10-05T09:06:16.876Z,100682.22
2022-10-05T09:09:21.688Z,100683.94
2022-10-05T09:12:07.344Z,100680.59
2022-10-05T09:15:13.614Z,100670.25
2022-10-05T09:18:19.808Z,100658.94
2022-10-05T09:20:53.899Z,100656.72
2022-10-05T09:23:39.067Z,100653.72
2022-10-05T09:26:10.405Z,100655.13
2022-10-05T09:28:57.523Z,100650.03
2022-10-05T09:31:52.417Z,100652.00
2022-10-05T09:34:50.976Z,100650.47
2022-10-05T09:37:49.361Z,100655.75
2022-10-05T09:40:51.418Z,100653.13
2022-10-05T09:43:56.103Z,100657.25
2022-10-05T09:47:08.816Z,100657.50
2022-10-05T09:50:10.832Z,100660.28
2022-10-05T09:58:55.914Z,100673.78
2022-10-05T10:01:54.529Z,100665.13
2022-10-05T10:04:33.069Z,100663.94
2022-10-05T10:07:48.677Z,100662.44
2022-10-05T10:10:58.613Z,100670.28
2022-10-05T10:13:55.828Z,100657.44
2022-10-05T10:16:38.983Z,100659.44
2022-10-05T10:19:29.236Z,100663.69
2022-10-05T10:22:18.175Z,100660.13
2022-10-05T10:25:08.243Z,100655.47
2022-10-05T10:27:54.352Z,100642.44
2022-10-05T10:30:44.066Z,100648.97
2022-10-05T10:33:38.269Z,100651.16
2022-10-05T10:36:17.889Z,100650.97
2022-10-05T10:38:59.586Z,100650.09
2022-10-05T10:41:53.640Z,100653.13
2022-10-05T10:45:05.803Z,100647.47
2022-10-05T10:47:48.295Z,100645.78
2022-10-05T10:50:53.044Z,100643.41
2022-10-05T10:53:49.494Z,100638.31
2022-10-05T10:56:51.971Z,100643.22
2022-10-05T11:00:04.054Z,100642.88
2022-10-05T11:03:04.245Z,100636.50
2022-10-05T11:06:07.598Z,100626.94
2022-10-05T11:08:58.148Z,100634.94
2022-10-05T11:11:59.586Z,100637.75
2022-10-05T11:14:52.420Z,100638.00
2022-10-05T11:17:45.730Z,100620.78
2022-10-05T11:20:49.299Z,100624.81
2022-10-05T11:23:46.786Z,100628.81
2022-10-05T11:26:38.914Z,100610.88
2022-10-05T11:29:34.852Z,100612.31
2022-10-05T11:32:43.307Z,100611.59
2022-10-05T11:35:42.797Z,100610.28
2022-10-05T11:38:50.212Z,100605.38
2022-10-05T11:41:45.261Z,100608.44
2022-10-05T11:44:46.310Z,100609.16
2022-10-05T11:47:23.937Z,100599.44
2022-10-05T11:50:05.589Z,100603.72
2022-10-05T11:52:43.796Z,100598.34
2022-10-05T11:55:24.191Z,100599.50
2022-10-05T11:57:57.325Z,100604.28
2022-10-05T12:00:31.828Z,100602.84
2022-10-05T12:03:42.673Z,100604.50
2022-10-05T12:06:27.155Z,100588.47
2022-10-05T12:09:08.683Z,100589.81
2022-10-05T12:11:57.684Z,100578.63
2022-10-05T12:14:41.755Z,100575.91
2022-10-05T12:17:23.970Z,100579.34
2022-10-05T12:19:57.914Z,100571.44
2022-10-05T12:22:32.993Z,100569.19
2022-10-05T12:25:17.595Z,100571.69
2022-10-05T12:27:48.127Z,100564.97
2022-10-05T12:30:20.200Z,100560.53
2022-10-05T12:33:02.228Z,100557.16
2022-10-05T12:35:47.966Z,100560.06
2022-10-05T12:38:28.558Z,100557.25
2022-10-05T12:41:10.793Z,100563.75
2022-10-05T12:43:48.087Z,100552.13
2022-10-05T12:46:26.844Z,100555.13
2022-10-05T12:49:19.587Z,100552.28
2022-10-05T12:51:57.061Z,100556.31
2022-10-05T12:54:38.745Z,100559.59
2022-10-05T12:57:16.646Z,100554.59
2022-10-05T12:59:53.792Z,100550.53
2022-10-05T13:02:39.059Z,100550.19
2022-10-05T13:05:22.533Z,100552.91
2022-10-05T13:08:01.504Z,100553.97
2022-10-05T13:10:36.430Z,100553.56
2022-10-05T13:13:28.682Z,100543.38
2022-10-05T13:16:04.379Z,100542.84
2022-10-05T13:18:49.863Z,100543.50
2022-10-05T13:21:24.811Z,100548.88
2022-10-05T13:24:00.043Z,100545.34
2022-10-05T13:26:36.029Z,100539.88
2022-10-05T13:29:17.853Z,100540.69
2022-10-05T13:31:49.283Z,100542.78
2022-10-05T13:34:26.867Z,100543.03
2022-10-05T13:37:07.098Z,100545.41
2022-10-05T13:39:51.441Z,100537.06
2022-10-05T13:42:26.880Z,100538.56
2022-10-05T13:45:01.807Z,100536.97
2022-10-05T13:47:35.447Z,100535.41
2022-10-05T13:50:15.540Z,100531.97
2022-10-05T13:52:57.399Z,100533.19
2022-10-05T13:55:38.901Z,100528.84
2022-10-05T13:58:16.273Z,100533.59
2022-10-05T14:00:52.058Z,100537.94
2022-10-05T14:03:31.036Z,100521.06
2022-10-05T14:06:01.556Z,100524.16
2022-10-05T14:08:33.263Z,100521.50
2022-10-05T14:11:23.257Z,100507.81
2022-10-05T14:13:53.150Z,100510.91
2022-10-05T14:16:25.642Z,100505.84
2022-10-05T14:18:57.691Z,100517.06
2022-10-05T14:21:29.916Z,100521.34
2022-10-05T14:24:32.064Z,100511.31
2022-10-05T14:27:21.542Z,100514.47
2022-10-05T14:29:57.378Z,100508.56
2022-10-05T14:32:31.096Z,100523.50
2022-10-05T14:35:15.420Z,100525.00
2022-10-05T14:37:47.907Z,100522.47
2022-10-05T14:40:28.405Z,100515.88
2022-10-05T14:42:57.693Z,100514.38
2022-10-05T14:45:29.934Z,100518.06
2022-10-05T14:48:11.364Z,100512.28
2022-10-05T14:50:54.986Z,100523.53
2022-10-05T14:53:26.220Z,100514.16
2022-10-05T14:56:32.248Z,100503.28
2022-10-05T14:59:28.423Z,100504.00
2022-10-05T15:02:15.769Z,100510.91
2022-10-05T15:04:54.344Z,100509.84
2022-10-05T15:07:29.508Z,100515.59
2022-10-05T15:10:18.952Z,100512.75
2022-10-05T15:12:48.674Z,100510.75
2022-10-05T15:15:27.040Z,100514.94
2022-10-05T15:18:01.560Z,100512.78
2022-10-05T15:20:41.597Z,100516.16
2022-10-05T15:23:24.552Z,100512.69
2022-10-05T15:26:06.052Z,100511.81
2022-10-05T15:28:42.299Z,100519.84
2022-10-05T15:31:25.059Z,100515.59
2022-10-05T15:34:01.715Z,100510.66
2022-10-05T15:36:41.519Z,100509.06
2022-10-05T15:39:20.227Z,100509.41
2022-10-05T15:42:00.417Z,100503.16
2022-10-05T15:44:45.418Z,100506.03
2022-10-05T15:47:20.354Z,100507.25
2022-10-05T15:50:00.123Z,100517.16
2022-10-05T15:52:37.189Z,100513.69
2022-10-05T15:55:36.258Z,100513.88
2022-10-05T15:58:23.660Z,100509.97
2022-10-05T16:00:58.815Z,100507.50
2022-10-05T16:03:42.619Z,100499.03
2022-10-05T16:06:37.713Z,100497.19
2022-10-05T16:09:24.531Z,100496.47
2022-10-05T16:12:02.590Z,100503.78
2022-10-05T16:14:43.100Z,100494.13
2022-10-05T16:17:25.274Z,100505.72
2022-10-05T16:20:07.912Z,100507.00
2022-10-05T16:22:45.443Z,100512.13
2022-10-05T16:25:23.390Z,100513.41
2022-10-05T16:28:07.347Z,100516.06
2022-10-05T16:30:51.072Z,100513.56
2022-10-05T16:33:27.022Z,100520.03
2022-10-05T16:36:10.585Z,100521.09
2022-10-05T16:38:47.300Z,100523.84
2022-10-05T16:41:28.032Z,100527.50
2022-10-05T16:44:10.512Z,100534.78
2022-10-05T16:46:51.360Z,100534.88
2022-10-05T16:49:32.764Z,100542.03
2022-10-05T16:52:04.882Z,100536.22
2022-10-05T16:54:38.031Z,100535.38
2022-10-05T16:57:14.687Z,100530.09
2022-10-05T17:00:03.939Z,100527.31
2022-10-05T17:03:03.703Z,100527.53
2022-10-05T17:05:47.863Z,100514.38
2022-10-05T17:08:39.491Z,100503.84
2022-10-05T17:11:22.737Z,100504.88
2022-10-05T17:14:23.610Z,100503.00
2022-10-05T17:17:16.060Z,100505.81
2022-10-05T17:20:00.360Z,100507.72
2022-10-05T17:22:34.278Z,100511.41
2022-10-05T17:25:13.688Z,100516.84
2022-10-05T17:27:52.289Z,100524.75
2022-10-05T17:30:49.144Z,100523.81
2022-10-05T17:33:25.377Z,100537.38
2022-10-05T17:36:12.835Z,100530.41
2022-10-05T17:38:49.737Z,100537.41
2022-10-05T17:41:24.623Z,100542.97
2022-10-05T17:44:24.453Z,100542.06
2022-10-05T17:47:03.907Z,100539.59
2022-10-05T17:50:14.593Z,100544.97
2022-10-05T17:53:02.456Z,100545.31
2022-10-05T17:55:47.511Z,100549.66
2022-10-05T17:59:02.093Z,100541.69
2022-10-05T18:01:34.455Z,100540.13
2022-10-05T18:04:38.839Z,100538.25
2022-10-05T18:07:20.809Z,100540.09
2022-10-05T18:09:58.499Z,100541.09
2022-10-05T18:12:55.606Z,100547.47
2022-10-05T18:15:46.163Z,100541.25
2022-10-05T18:18:36.586Z,100548.34
2022-10-05T18:21:39.018Z,100537.84
2022-10-05T18:24:34.425Z,100544.00
2022-10-05T18:27:25.487Z,100547.53
2022-10-05T18:30:05.712Z,100542.38
2022-10-05T18:33:05.454Z,100543.38
2022-10-05T18:35:48.652Z,100537.28
2022-10-05T18:38:33.258Z,100547.06
2022-10-05T18:41:09.049Z,100547.94
2022-10-05T18:43:44.732Z,100542.72
2022-10-05T18:46:24.750Z,100538.31
2022-10-05T18:49:05.901Z,100534.00
2022-10-05T18:51:51.710Z,100539.28
2022-10-05T18:54:48.505Z,100540.13
2022-10-05T18:57:50.761Z,100545.41
2022-10-05T19:00:22.152Z,100544.91
2022-10-05T19:02:54.491Z,100549.28
2022-10-05T19:05:48.119Z,100556.16
2022-10-05T19:08:29.797Z,100558.00
2022-10-05T19:11:09.206Z,100552.69
2022-10-05T19:13:47.875Z,100556.19
2022-10-05T19:16:31.862Z,100551.03
2022-10-05T19:19:43.889Z,100553.69
2022-10-05T19:22:26.121Z,100555.44
2022-10-05T19:25:22.808Z,100554.59
2022-10-05T19:28:03.577Z,100557.31
2022-10-05T19:30:46.268Z,100562.69
2022-10-05T19:33:28.598Z,100573.22
2022-10-05T19:36:10.289Z,100572.50
2022-10-05T19:38:52.745Z,100565.47
2022-10-05T19:41:31.202Z,100563.00
2022-10-05T19:44:14.879Z,100567.44
2022-10-05T19:47:01.004Z,100573.63
2022-10-05T19:49:49.103Z,100575.28
2022-10-05T19:52:26.694Z,100575.34
2022-10-05T19:55:13.903Z,100577.09
2022-10-05T19:57:49.721Z,100574.44
2022-10-05T20:00:24.810Z,100586.09
2022-10-05T20:03:09.013Z,100582.63
2022-10-05T20:05:37.809Z,100587.94
2022-10-05T20:08:06.424Z,100587.09
2022-10-05T20:10:35.531Z,100591.50
2022-10-05T20:13:08.615Z,100594.91
2022-10-05T20:15:56.251Z,100599.31
2022-10-05T20:19:06.105Z,100597.47
2022-10-05T20:21:45.069Z,100594.88
2022-10-05T20:24:15.584Z,100585.31
2022-10-05T20:27:06.104Z,100589.69
2022-10-05T20:29:37.089Z,100584.44
2022-10-05T20:32:10.046Z,100579.97
2022-10-05T20:34:41.403Z,100583.59
2022-10-05T20:37:11.482Z,100584.47
2022-10-05T20:39:41.012Z,100582.72
2022-10-05T20:42:10.288Z,100587.13
2022-10-05T20:44:39.334Z,100579.16
2022-10-05T20:47:10.337Z,100571.22
2022-10-05T20:49:41.208Z,100570.31
2022-10-05T20:52:12.259Z,100575.47
2022-10-05T20:54:40.834Z,100567.56
2022-10-05T20:57:10.142Z,100575.47
2022-10-05T20:59:38.553Z,100556.16
2022-10-05T21:02:08.718Z,100553.50
2022-10-05T21:04:41.624Z,100557.91
2022-10-05T21:07:10.632Z,100547.34
2022-10-05T21:09:40.940Z,100542.94
2022-10-05T21:12:09.408Z,100542.03
2022-10-05T21:14:38.530Z,100540.25
2022-10-05T21:17:09.444Z,100543.84
2022-10-05T21:19:39.513Z,100538.59
2022-10-05T21:22:08.544Z,100532.38
2022-10-05T21:24:37.962Z,100534.16
2022-10-05T21:27:06.775Z,100535.03
2022-10-05T21:29:37.059Z,100531.53
2022-10-05T21:32:08.716Z,100537.66
2022-10-05T21:34:39.216Z,100529.72
2022-10-05T21:37:08.083Z,100527.94
2022-10-05T21:39:36.782Z,100529.75
2022-10-05T21:42:05.704Z,100525.38
2022-10-05T21:44:34.069Z,100532.34
2022-10-05T21:47:04.317Z,100527.09
2022-10-05T21:49:33.093Z,100520.97
2022-10-05T21:52:05.567Z,100520.00
2022-10-05T21:54:35.112Z,100519.25
2022-10-05T21:57:04.239Z,100521.06
2022-10-05T21:59:35.631Z,100521.94
2022-10-05T22:02:04.420Z,100514.97
2022-10-05T22:04:32.721Z,100521.06
2022-10-05T22:07:02.423Z,100518.47
2022-10-05T22:09:31.067Z,100513.09
2022-10-05T22:12:00.112Z,100518.47
2022-10-05T22:14:28.679Z,100516.69
2022-10-05T22:16:57.263Z,100520.16
2022-10-05T22:19:25.700Z,100508.72
2022-10-05T22:21:54.055Z,100511.47
2022-10-05T22:24:24.034Z,100517.63
2022-10-05T22:26:52.841Z,100506.34
2022-10-05T22:29:21.982Z,100500.22
2022-10-05T22:31:50.623Z,100504.53
2022-10-05T22:34:19.338Z,100503.72
2022-10-05T22:36:48.444Z,100497.50
2022-10-05T22:39:17.876Z,100497.50
2022-10-05T22:41:47.867Z,100496.59
2022-10-05T22:44:16.437Z,100502.72
2022-10-05T22:46:45.069Z,100499.19
2022-10-05T22:49:13.485Z,100505.34
2022-10-05T22:51:41.898Z,100492.22
2022-10-05T22:54:10.660Z,100493.75
2022-10-05T22:56:38.974Z,100490.28
2022-10-05T22:59:08.676Z,100483.19
2022-10-05T23:01:37.311Z,100479.69
2022-10-05T23:04:05.668Z,100484.97
2022-10-05T23:06:33.998Z,100484.03
2022-10-05T23:09:02.615Z,100483.19
2022-10-05T23:11:31.425Z,100483.31
2022-10-05T23:14:00.383Z,100478.84
2022-10-05T23:16:30.463Z,100475.41
2022-10-05T23:19:00.143Z,100475.41
2022-10-05T23:21:30.549Z,100479.09
2022-10-05T23:23:59.108Z,100474.53
2022-10-05T23:26:27.882Z,100467.50
2022-10-05T23:28:56.296Z,100463.16
2022-10-05T23:31:28.027Z,100463.25
2022-10-05T23:33:57.898Z,100463.19
2022-10-05T23:36:28.320Z,100455.25
2022-10-05T23:38:56.797Z,100457.91
2022-10-05T23:41:25.949Z,100456.94
2022-10-05T23:43:55.918Z,100461.47
2022-10-05T23:46:24.570Z,100454.38
2022-10-05T23:48:53.281Z,100459.56
2022-10-05T23:51:23.325Z,100461.25
2022-10-05T23:53:51.757Z,100455.03
2022-10-05T23:56:20.030Z,100452.34
2022-10-05T23:58:48.623Z,100451.53
